Time;durP1;ratioP1;P1;durP2;ratioP2;P2;SDS_P1;SDS_P2;PMS_P1;PMS_P2;Temp;Humidity;BMP_temperature;BMP_pressure;BME280_temperature;BME280_humidity;BME280_pressure;Samples;Min_cycle;Max_cycle;Signal;HPM_P1;HPM_P2
2023/03/12 00:00:48;;;;;;;5.60;4.57;;;3.70;99.90;;;;;;5081159;28;20497;-70
2023/03/12 00:03:17;;;;;;;6.97;4.07;;;3.80;99.90;;;;;;5086485;28;20429;-70
2023/03/12 00:05:45;;;;;;;5.00;3.60;;;3.70;99.90;;;;;;5073320;28;20569;-71
2023/03/12 00:08:12;;;;;;;4.83;3.23;;;3.60;99.90;;;;;;5087562;28;20462;-70
2023/03/12 00:10:40;;;;;;;9.77;4.00;;;3.60;99.90;;;;;;5079572;28;20533;-70
2023/03/12 00:13:07;;;;;;;5.70;4.70;;;3.60;99.90;;;;;;5077626;28;20430;-70
2023/03/12 00:15:36;;;;;;;7.40;4.87;;;3.60;99.90;;;;;;5087661;28;20459;-70
2023/03/12 00:18:04;;;;;;;7.17;5.80;;;3.60;99.90;;;;;;5091814;28;20461;-70
2023/03/12 00:20:32;;;;;;;3.47;3.00;;;3.60;99.90;;;;;;5079777;28;20421;-70
2023/03/12 00:22:59;;;;;;;5.17;3.97;;;3.70;99.90;;;;;;5082853;28;20457;-70
2023/03/12 00:25:26;;;;;;;5.87;4.83;;;3.70;99.90;;;;;;5087780;28;20457;-70
2023/03/12 00:27:53;;;;;;;5.20;3.10;;;3.60;99.90;;;;;;5090443;28;20447;-71
2023/03/12 00:30:21;;;;;;;6.40;3.80;;;3.80;99.90;;;;;;5092718;28;20420;-70
2023/03/12 00:32:48;;;;;;;6.10;4.07;;;3.70;99.90;;;;;;5081243;28;20465;-71
2023/03/12 00:35:15;;;;;;;4.63;2.90;;;3.70;99.90;;;;;;5078441;28;20466;-71
2023/03/12 00:37:43;;;;;;;4.40;3.30;;;3.70;99.90;;;;;;5080041;28;20573;-71
2023/03/12 00:40:11;;;;;;;5.90;3.50;;;3.80;99.90;;;;;;5082395;28;20507;-70
2023/03/12 00:42:38;;;;;;;4.37;2.93;;;3.70;99.90;;;;;;5085835;28;21000;-71
2023/03/12 00:45:06;;;;;;;3.40;2.53;;;3.80;99.90;;;;;;5072838;28;20461;-70
2023/03/12 00:47:33;;;;;;;2.97;2.70;;;3.70;99.90;;;;;;5079141;28;20460;-70
2023/03/12 00:50:00;;;;;;;3.80;2.40;;;3.70;99.90;;;;;;5084779;28;20468;-70
2023/03/12 00:52:27;;;;;;;2.00;1.80;;;3.70;99.90;;;;;;5084389;28;20494;-70
2023/03/12 00:54:57;;;;;;;2.60;2.33;;;3.70;99.90;;;;;;5090515;28;20460;-70
2023/03/12 00:57:24;;;;;;;6.30;1.90;;;3.90;99.90;;;;;;5084338;28;20457;-70
2023/03/12 00:59:51;;;;;;;2.10;1.90;;;4.00;99.90;;;;;;5085240;28;21390;-71
2023/03/12 01:02:20;;;;;;;2.03;1.43;;;4.00;99.90;;;;;;5075372;28;20444;-72
2023/03/12 01:04:47;;;;;;;2.60;1.73;;;4.10;99.90;;;;;;5096260;28;20489;-72
2023/03/12 01:07:14;;;;;;;2.63;2.23;;;4.10;99.90;;;;;;5101029;28;20505;-70
2023/03/12 01:09:40;;;;;;;4.33;1.90;;;4.20;99.90;;;;;;5080936;28;20457;-71
2023/03/12 01:12:09;;;;;;;1.77;1.57;;;4.20;99.90;;;;;;5080662;28;20464;-71
2023/03/12 01:14:36;;;;;;;2.43;2.20;;;4.20;99.90;;;;;;5086556;28;20446;-70
2023/03/12 01:17:03;;;;;;;1.80;1.70;;;4.20;99.90;;;;;;5083732;28;20494;-70
2023/03/12 01:19:30;;;;;;;3.70;1.97;;;4.20;99.90;;;;;;5085126;28;20524;-71
2023/03/12 01:21:57;;;;;;;1.73;1.63;;;4.20;99.90;;;;;;5093383;28;20443;-71
2023/03/12 01:24:23;;;;;;;1.87;1.50;;;4.10;99.90;;;;;;5097321;28;20515;-70
2023/03/12 01:26:50;;;;;;;1.97;1.80;;;4.20;99.90;;;;;;5079707;28;21050;-70
2023/03/12 01:29:19;;;;;;;1.63;1.53;;;4.40;99.90;;;;;;5085296;28;20507;-71
2023/03/12 01:31:46;;;;;;;3.53;2.60;;;4.30;99.90;;;;;;5085608;28;20489;-71
2023/03/12 01:34:13;;;;;;;2.03;1.50;;;4.20;99.90;;;;;;5078279;28;20468;-71
2023/03/12 01:36:43;;;;;;;2.47;1.70;;;4.10;99.90;;;;;;5078215;28;20464;-71
2023/03/12 01:39:10;;;;;;;2.27;2.00;;;4.30;99.90;;;;;;5084240;28;20961;-71
2023/03/12 01:41:38;;;;;;;1.73;1.40;;;4.40;99.90;;;;;;5088379;28;20444;-71
2023/03/12 01:44:06;;;;;;;1.77;1.67;;;4.30;99.90;;;;;;5084640;28;20991;-71
2023/03/12 01:46:35;;;;;;;1.63;1.37;;;4.20;99.90;;;;;;5085941;28;20486;-71
2023/03/12 01:49:07;;;;;;;1.50;1.30;;;4.30;99.90;;;;;;5079650;28;20457;-71
2023/03/12 01:51:38;;;;;;;1.63;1.30;;;4.30;99.90;;;;;;5081377;28;20454;-71
2023/03/12 01:54:09;;;;;;;1.83;1.67;;;4.30;99.90;;;;;;5073191;28;20446;-71
2023/03/12 01:56:36;;;;;;;1.40;1.20;;;4.40;99.90;;;;;;5088873;28;20528;-71
2023/03/12 01:59:10;;;;;;;3.43;1.27;;;4.40;99.90;;;;;;5084858;28;20432;-71
2023/03/12 02:01:40;;;;;;;1.63;1.50;;;4.30;99.90;;;;;;5076956;28;20954;-71
2023/03/12 02:04:07;;;;;;;5.60;1.87;;;4.40;99.90;;;;;;5075894;28;20495;-71
2023/03/12 02:06:39;;;;;;;1.93;1.77;;;4.50;99.90;;;;;;5083525;28;20539;-71
2023/03/12 02:09:08;;;;;;;2.90;2.70;;;4.50;99.90;;;;;;5082132;28;20435;-71
2023/03/12 02:11:35;;;;;;;2.70;1.50;;;4.40;99.90;;;;;;5079355;28;20438;-71
2023/03/12 02:14:02;;;;;;;2.37;1.30;;;4.20;99.90;;;;;;5087822;28;20457;-71
2023/03/12 02:16:29;;;;;;;4.20;1.70;;;4.10;99.90;;;;;;5079015;28;20436;-71
2023/03/12 02:19:01;;;;;;;1.20;1.10;;;4.20;99.90;;;;;;5082065;28;20437;-71
2023/03/12 02:21:32;;;;;;;4.13;1.77;;;4.30;99.90;;;;;;5082349;28;20474;-71
2023/03/12 02:24:06;;;;;;;3.20;1.50;;;4.20;99.90;;;;;;5083745;28;20430;-70
2023/03/12 02:26:37;;;;;;;2.03;1.57;;;4.20;99.90;;;;;;5078143;28;20532;-70
2023/03/12 02:29:05;;;;;;;1.73;1.63;;;4.30;99.90;;;;;;5087769;28;20443;-70
2023/03/12 02:31:38;;;;;;;1.60;1.50;;;4.40;99.90;;;;;;5083161;28;20478;-70
2023/03/12 02:34:07;;;;;;;1.40;1.30;;;4.40;99.90;;;;;;5078133;28;20448;-70
2023/03/12 02:36:34;;;;;;;1.83;1.00;;;4.30;99.90;;;;;;5081442;28;20476;-69
2023/03/12 02:39:01;;;;;;;6.63;1.87;;;4.10;99.90;;;;;;5079477;28;20476;-70
2023/03/12 02:41:31;;;;;;;1.30;1.13;;;4.10;99.90;;;;;;5082141;28;20449;-70
2023/03/12 02:44:04;;;;;;;5.33;1.17;;;4.20;99.90;;;;;;5087380;28;20428;-70
2023/03/12 02:46:34;;;;;;;1.93;1.80;;;4.30;99.90;;;;;;5081121;28;20564;-70
2023/03/12 02:49:02;;;;;;;2.43;1.63;;;4.40;99.90;;;;;;5082137;28;20447;-70
2023/03/12 02:51:31;;;;;;;3.87;1.77;;;4.30;99.90;;;;;;5092619;28;20883;-70
2023/03/12 02:53:58;;;;;;;3.10;1.97;;;4.20;99.90;;;;;;5092025;28;20433;-70
2023/03/12 02:56:28;;;;;;;1.83;1.50;;;4.40;99.90;;;;;;5084106;28;20550;-70
2023/03/12 02:58:55;;;;;;;2.23;1.30;;;4.40;99.90;;;;;;5084348;28;20462;-70
2023/03/12 03:01:23;;;;;;;3.20;1.80;;;4.40;99.90;;;;;;5092465;28;20497;-70
2023/03/12 03:03:50;;;;;;;3.00;2.07;;;4.50;99.90;;;;;;5086791;28;20446;-70
2023/03/12 03:06:17;;;;;;;2.80;1.90;;;4.60;99.90;;;;;;5087450;28;21043;-70
2023/03/12 03:08:44;;;;;;;4.03;1.80;;;4.50;99.90;;;;;;5091234;28;20507;-70
2023/03/12 03:11:11;;;;;;;1.70;1.60;;;4.60;99.90;;;;;;5092989;28;20507;-70
2023/03/12 03:13:38;;;;;;;2.23;1.30;;;4.50;99.90;;;;;;5090310;28;20457;-71
2023/03/12 03:16:06;;;;;;;2.10;1.90;;;4.50;99.90;;;;;;5089934;28;20852;-70
2023/03/12 03:18:34;;;;;;;2.50;2.00;;;4.60;99.90;;;;;;5079029;28;20429;-71
2023/03/12 03:21:04;;;;;;;2.50;1.73;;;4.50;99.90;;;;;;5079378;28;20499;-70
2023/03/12 03:23:31;;;;;;;3.47;1.60;;;4.50;99.90;;;;;;5096961;28;20473;-70
2023/03/12 03:26:01;;;;;;;1.90;1.20;;;4.50;99.90;;;;;;5083848;28;21020;-70
2023/03/12 03:28:30;;;;;;;1.20;1.00;;;4.40;99.90;;;;;;5092111;28;20928;-70
2023/03/12 03:31:00;;;;;;;4.27;1.63;;;4.40;99.90;;;;;;5079964;28;20453;-70
2023/03/12 03:33:28;;;;;;;9.03;1.90;;;4.40;99.90;;;;;;5086351;28;20835;-71
2023/03/12 03:35:58;;;;;;;1.50;1.23;;;4.50;99.90;;;;;;5081301;28;20453;-71
2023/03/12 03:38:25;;;;;;;2.33;1.60;;;4.40;99.90;;;;;;5081627;28;20424;-71
2023/03/12 03:40:52;;;;;;;1.97;1.53;;;4.40;99.90;;;;;;5086794;28;20526;-69
2023/03/12 03:43:20;;;;;;;1.83;1.40;;;4.40;99.90;;;;;;5081707;28;20475;-70
2023/03/12 03:45:48;;;;;;;1.30;1.20;;;4.50;99.90;;;;;;5095203;28;20425;-70
2023/03/12 03:48:15;;;;;;;1.43;1.33;;;4.50;99.90;;;;;;5102082;28;20866;-70
2023/03/12 03:50:42;;;;;;;1.90;1.30;;;4.50;99.90;;;;;;5081982;28;20449;-70
2023/03/12 03:53:11;;;;;;;3.13;2.70;;;4.50;99.90;;;;;;5085496;28;21041;-70
2023/03/12 03:55:48;;;;;;;1.83;1.10;;;4.60;99.90;;;;;;5084665;28;20865;-69
2023/03/12 03:58:15;;;;;;;1.53;1.43;;;4.50;99.90;;;;;;5089315;28;20447;-70
2023/03/12 04:00:45;;;;;;;3.20;1.83;;;4.60;99.90;;;;;;5082029;28;20504;-70
2023/03/12 04:03:12;;;;;;;1.80;1.23;;;4.60;99.90;;;;;;5080696;28;20457;-70
2023/03/12 04:05:39;;;;;;;1.73;1.63;;;4.60;99.90;;;;;;5084436;28;20433;-70
2023/03/12 04:08:06;;;;;;;1.77;1.13;;;4.60;99.90;;;;;;5085090;28;20505;-71
2023/03/12 04:10:34;;;;;;;2.70;1.80;;;4.70;99.90;;;;;;5077517;28;20474;-70
2023/03/12 04:13:02;;;;;;;2.43;2.13;;;4.80;99.90;;;;;;5081933;28;20944;-70
2023/03/12 04:15:29;;;;;;;1.97;1.47;;;4.80;99.90;;;;;;5084341;28;20451;-70
2023/03/12 04:17:55;;;;;;;1.90;1.30;;;4.80;99.90;;;;;;5090486;28;20497;-70
2023/03/12 04:20:22;;;;;;;3.20;1.83;;;4.80;99.90;;;;;;5088402;28;20503;-70
2023/03/12 04:22:49;;;;;;;1.87;1.43;;;4.80;99.90;;;;;;5083602;28;20466;-71
2023/03/12 04:25:16;;;;;;;3.40;1.40;;;4.80;99.90;;;;;;5079905;28;20522;-71
2023/03/12 04:27:45;;;;;;;5.43;1.93;;;4.80;99.90;;;;;;5080365;28;20480;-71
2023/03/12 04:30:13;;;;;;;4.13;2.07;;;4.70;99.90;;;;;;5087628;28;20502;-71
2023/03/12 04:32:40;;;;;;;1.70;1.60;;;4.80;99.90;;;;;;5081720;28;20524;-71
2023/03/12 04:35:07;;;;;;;2.60;1.73;;;4.80;99.90;;;;;;5084428;28;20929;-70
2023/03/12 04:37:34;;;;;;;2.30;1.27;;;4.80;99.90;;;;;;5083296;28;20888;-70
2023/03/12 04:40:04;;;;;;;2.90;1.83;;;4.90;99.90;;;;;;5083874;28;20516;-71
2023/03/12 04:42:31;;;;;;;1.40;1.13;;;4.90;99.90;;;;;;5079069;28;20461;-71
2023/03/12 04:45:00;;;;;;;1.83;1.10;;;4.90;99.90;;;;;;5091976;28;20429;-71
2023/03/12 04:47:27;;;;;;;3.30;1.90;;;4.80;99.90;;;;;;5082293;28;20459;-71
2023/03/12 04:49:54;;;;;;;2.60;1.40;;;4.70;99.90;;;;;;5084199;28;21017;-71
2023/03/12 04:52:21;;;;;;;1.70;1.20;;;4.70;99.90;;;;;;5090437;28;20458;-71
2023/03/12 04:54:47;;;;;;;1.77;1.10;;;4.60;99.90;;;;;;5086225;28;20602;-71
2023/03/12 04:57:14;;;;;;;2.00;1.80;;;4.70;99.90;;;;;;5086017;28;20479;-71
2023/03/12 04:59:41;;;;;;;4.03;1.37;;;4.70;99.90;;;;;;5086128;28;21016;-71
2023/03/12 05:02:10;;;;;;;1.40;1.20;;;4.70;99.90;;;;;;5051457;28;20443;-71
2023/03/12 05:04:37;;;;;;;3.00;1.57;;;4.70;99.90;;;;;;5086185;28;20413;-71
2023/03/12 05:07:04;;;;;;;2.03;1.10;;;4.70;99.90;;;;;;5085780;28;20872;-71
2023/03/12 05:09:31;;;;;;;2.40;1.10;;;4.60;99.90;;;;;;5088899;28;20504;-71
2023/03/12 05:11:58;;;;;;;1.10;1.00;;;4.60;99.90;;;;;;5089050;28;20529;-71
2023/03/12 05:14:25;;;;;;;1.50;1.40;;;4.50;99.90;;;;;;5090819;28;20830;-70
2023/03/12 05:16:52;;;;;;;3.50;1.20;;;4.40;99.90;;;;;;5075443;28;20638;-71
2023/03/12 05:19:20;;;;;;;2.17;1.83;;;4.40;99.90;;;;;;5079222;28;20811;-71
2023/03/12 05:21:47;;;;;;;2.17;2.03;;;4.60;99.90;;;;;;5083613;28;20470;-71
2023/03/12 05:24:15;;;;;;;5.20;1.80;;;4.60;99.90;;;;;;5088929;28;20429;-71
2023/03/12 05:26:42;;;;;;;9.30;2.17;;;4.50;99.90;;;;;;5084116;28;20952;-71
2023/03/12 05:29:09;;;;;;;1.10;0.97;;;4.60;99.90;;;;;;5073754;28;20544;-71
2023/03/12 05:31:36;;;;;;;4.33;1.70;;;4.40;99.90;;;;;;5074896;28;20454;-71
2023/03/12 05:34:04;;;;;;;1.50;1.40;;;4.50;99.90;;;;;;5076748;28;20957;-71
2023/03/12 05:36:32;;;;;;;2.30;1.20;;;4.50;99.90;;;;;;5077006;28;20452;-71
2023/03/12 05:38:59;;;;;;;4.60;1.30;;;4.50;99.90;;;;;;5078394;28;20845;-71
2023/03/12 05:41:28;;;;;;;1.90;1.60;;;4.50;99.90;;;;;;5088227;28;20499;-71
2023/03/12 05:43:56;;;;;;;1.97;1.47;;;4.60;99.90;;;;;;5082823;28;20472;-71
2023/03/12 05:46:23;;;;;;;0.90;0.70;;;4.70;99.90;;;;;;5082209;28;20444;-71
2023/03/12 05:48:51;;;;;;;2.50;1.27;;;4.70;99.90;;;;;;5083090;28;20457;-71
2023/03/12 05:51:18;;;;;;;1.57;1.13;;;4.70;99.90;;;;;;5077257;28;20445;-71
2023/03/12 05:53:46;;;;;;;3.67;1.33;;;4.60;99.90;;;;;;5079798;28;20434;-71
2023/03/12 05:56:15;;;;;;;1.07;0.97;;;4.70;99.90;;;;;;5097287;28;20477;-71
2023/03/12 05:58:43;;;;;;;1.20;1.00;;;4.60;99.90;;;;;;5088002;28;20452;-71
2023/03/12 06:01:14;;;;;;;1.10;1.00;;;4.60;99.90;;;;;;5079308;28;20851;-71
2023/03/12 06:03:42;;;;;;;1.00;0.90;;;4.50;99.90;;;;;;5088455;28;20470;-71
2023/03/12 06:06:10;;;;;;;1.63;1.53;;;4.70;99.90;;;;;;5076609;28;20441;-71
2023/03/12 06:08:37;;;;;;;3.97;1.20;;;4.70;99.90;;;;;;5072989;28;20543;-71
2023/03/12 06:11:06;;;;;;;1.33;1.17;;;4.70;99.90;;;;;;5078416;28;20866;-71
2023/03/12 06:13:33;;;;;;;1.30;1.10;;;4.60;99.90;;;;;;5083564;28;20467;-71
2023/03/12 06:16:04;;;;;;;1.40;1.30;;;4.70;99.90;;;;;;5081704;28;20428;-71
2023/03/12 06:18:32;;;;;;;1.23;1.13;;;4.70;99.90;;;;;;5083013;28;20457;-69
2023/03/12 06:21:09;;;;;;;1.23;1.10;;;4.60;99.90;;;;;;5084426;28;20412;-70
2023/03/12 06:23:36;;;;;;;1.30;1.20;;;4.70;99.90;;;;;;5082047;28;20501;-71
2023/03/12 06:26:03;;;;;;;4.63;1.40;;;4.70;99.90;;;;;;5091342;28;20502;-71
2023/03/12 06:28:33;;;;;;;6.73;1.97;;;4.70;99.90;;;;;;5085975;28;21018;-71
2023/03/12 06:31:00;;;;;;;1.50;1.17;;;4.70;99.90;;;;;;5075377;28;20516;-71
2023/03/12 06:33:27;;;;;;;6.43;2.00;;;4.60;99.90;;;;;;5086968;28;20864;-71
2023/03/12 06:35:56;;;;;;;1.27;1.17;;;4.60;99.90;;;;;;5080148;28;20440;-71
2023/03/12 06:38:24;;;;;;;4.43;1.60;;;4.90;99.90;;;;;;5082238;28;20872;-71
2023/03/12 06:40:55;;;;;;;2.17;1.93;;;5.10;99.90;;;;;;5074983;28;20420;-71
2023/03/12 06:43:23;;;;;;;3.10;1.47;;;5.00;99.90;;;;;;5083323;28;20810;-71
2023/03/12 06:45:53;;;;;;;1.57;1.10;;;4.90;99.90;;;;;;5083428;28;20438;-71
2023/03/12 06:48:21;;;;;;;18.93;2.30;;;4.90;99.90;;;;;;5089680;28;20479;-71
2023/03/12 06:50:47;;;;;;;3.07;1.20;;;4.90;99.90;;;;;;5083547;28;20515;-71
2023/03/12 06:53:14;;;;;;;1.87;1.53;;;5.10;99.90;;;;;;5088082;28;20492;-70
2023/03/12 06:55:43;;;;;;;3.30;1.60;;;5.20;99.90;;;;;;5084682;28;20416;-70
2023/03/12 06:58:10;;;;;;;3.13;1.57;;;5.00;99.90;;;;;;5090840;28;20942;-70
2023/03/12 07:00:37;;;;;;;1.40;1.07;;;4.90;99.90;;;;;;5077274;28;20517;-70
2023/03/12 07:03:06;;;;;;;3.93;1.33;;;4.90;99.90;;;;;;5077598;28;20965;-70
2023/03/12 07:05:33;;;;;;;2.30;1.83;;;4.80;99.90;;;;;;5054093;28;20441;-70
2023/03/12 07:08:01;;;;;;;1.23;1.10;;;4.70;99.90;;;;;;5077453;28;20449;-70
2023/03/12 07:10:28;;;;;;;2.97;1.80;;;4.80;99.90;;;;;;5075906;28;20471;-70
2023/03/12 07:12:55;;;;;;;1.07;0.73;;;4.90;99.90;;;;;;5077959;28;20445;-71
2023/03/12 07:15:23;;;;;;;2.50;1.73;;;4.90;99.90;;;;;;5076332;28;20603;-71
2023/03/12 07:17:50;;;;;;;4.17;1.50;;;5.10;99.90;;;;;;5086337;28;20433;-71
2023/03/12 07:20:19;;;;;;;3.53;2.03;;;5.20;99.90;;;;;;5078827;28;20976;-71
2023/03/12 07:22:45;;;;;;;1.83;0.90;;;5.10;99.90;;;;;;5083315;28;20443;-71
2023/03/12 07:25:12;;;;;;;12.13;2.13;;;5.20;99.90;;;;;;5075150;28;20448;-71
2023/03/12 07:27:39;;;;;;;2.60;1.50;;;4.90;99.90;;;;;;5086439;28;20449;-71
2023/03/12 07:30:08;;;;;;;1.90;1.43;;;4.90;99.90;;;;;;5086811;28;20526;-72
2023/03/12 07:32:35;;;;;;;3.53;1.73;;;5.00;99.90;;;;;;5077223;28;20468;-71
2023/03/12 07:35:02;;;;;;;1.80;1.40;;;5.20;99.90;;;;;;5089903;28;20456;-72
2023/03/12 07:37:31;;;;;;;1.40;1.20;;;5.20;99.90;;;;;;5078721;28;20554;-71
2023/03/12 07:39:58;;;;;;;1.70;1.60;;;5.20;99.90;;;;;;5078448;28;20533;-71
2023/03/12 07:42:25;;;;;;;2.00;1.90;;;4.90;99.90;;;;;;5080590;28;20424;-71
2023/03/12 07:44:52;;;;;;;3.30;1.70;;;4.60;99.90;;;;;;5080509;28;20873;-71
2023/03/12 07:47:19;;;;;;;1.20;1.00;;;4.60;99.90;;;;;;5095422;28;20973;-71
2023/03/12 07:49:46;;;;;;;4.13;1.43;;;4.70;99.90;;;;;;5080851;28;20465;-71
2023/03/12 07:52:12;;;;;;;2.43;2.07;;;4.80;99.90;;;;;;5085547;28;20520;-71
2023/03/12 07:54:41;;;;;;;1.20;0.90;;;4.70;99.90;;;;;;5086542;28;20425;-71
2023/03/12 07:57:08;;;;;;;1.40;1.30;;;4.80;99.90;;;;;;5084218;28;20459;-71
2023/03/12 07:59:35;;;;;;;1.33;1.20;;;4.80;99.90;;;;;;5081791;28;20494;-71
2023/03/12 08:02:02;;;;;;;1.40;1.03;;;4.80;99.90;;;;;;5082975;28;20472;-71
2023/03/12 08:04:28;;;;;;;2.87;1.40;;;4.90;99.90;;;;;;5091352;28;20446;-72
2023/03/12 08:06:55;;;;;;;1.60;1.50;;;4.90;99.90;;;;;;5089366;28;20592;-71
2023/03/12 08:09:22;;;;;;;1.83;1.57;;;4.90;99.90;;;;;;5081146;28;20461;-71
2023/03/12 08:11:51;;;;;;;1.10;0.80;;;5.00;99.90;;;;;;5074269;28;20508;-72
2023/03/12 08:14:17;;;;;;;1.63;1.50;;;5.00;99.90;;;;;;5076329;28;20573;-72
2023/03/12 08:16:47;;;;;;;3.90;1.83;;;5.00;99.90;;;;;;5090635;28;20560;-72
2023/03/12 08:19:14;;;;;;;2.50;1.23;;;5.20;99.90;;;;;;5081163;28;20590;-71
2023/03/12 08:21:41;;;;;;;2.13;1.40;;;5.20;99.90;;;;;;5084126;28;20483;-71
2023/03/12 08:24:08;;;;;;;1.13;1.00;;;5.20;99.90;;;;;;5088051;28;20480;-71
2023/03/12 08:26:35;;;;;;;2.43;1.47;;;4.90;99.90;;;;;;5105657;28;20448;-71
2023/03/12 08:29:04;;;;;;;1.53;1.10;;;4.90;99.90;;;;;;5085696;28;20482;-71
2023/03/12 08:31:31;;;;;;;4.47;1.50;;;5.10;99.90;;;;;;5092068;28;20476;-71
2023/03/12 08:33:57;;;;;;;2.90;2.60;;;5.20;99.90;;;;;;5089904;28;20519;-71
2023/03/12 08:36:24;;;;;;;2.70;2.00;;;5.30;99.90;;;;;;5077253;28;20492;-71
2023/03/12 08:38:51;;;;;;;2.60;1.97;;;5.40;99.90;;;;;;5090385;28;20464;-72
2023/03/12 08:41:18;;;;;;;1.50;1.40;;;5.50;99.90;;;;;;5085811;28;20484;-71
2023/03/12 08:43:45;;;;;;;2.73;2.10;;;5.50;99.90;;;;;;5095247;28;20487;-72
2023/03/12 08:46:14;;;;;;;2.20;1.53;;;5.50;99.90;;;;;;5076722;28;20792;-71
2023/03/12 08:48:41;;;;;;;1.60;1.40;;;5.60;99.90;;;;;;5076598;28;20460;-71
2023/03/12 08:51:08;;;;;;;3.00;1.97;;;5.60;99.90;;;;;;5088389;28;20460;-71
2023/03/12 08:53:36;;;;;;;4.93;2.73;;;5.70;99.90;;;;;;5084183;28;20488;-71
2023/03/12 08:56:04;;;;;;;2.50;2.20;;;5.80;99.90;;;;;;5081181;28;20533;-71
2023/03/12 08:58:32;;;;;;;6.53;3.00;;;5.80;99.90;;;;;;5084021;28;20479;-71
2023/03/12 09:00:59;;;;;;;2.50;2.07;;;6.00;99.90;;;;;;5077327;28;20473;-71
2023/03/12 09:03:27;;;;;;;2.00;1.70;;;5.90;99.90;;;;;;5081440;28;20570;-71
2023/03/12 09:06:04;;;;;;;2.23;2.03;;;6.00;99.90;;;;;;5079787;28;20433;-70
2023/03/12 09:08:32;;;;;;;3.67;2.50;;;6.00;99.90;;;;;;5081210;28;20562;-70
2023/03/12 09:11:02;;;;;;;2.10;1.90;;;6.10;99.90;;;;;;5086329;28;20489;-70
2023/03/12 09:13:29;;;;;;;2.43;2.10;;;6.30;99.90;;;;;;5080101;28;20490;-70
2023/03/12 09:15:59;;;;;;;3.10;2.40;;;6.40;99.90;;;;;;5083696;28;20502;-70
2023/03/12 09:18:28;;;;;;;1.20;0.90;;;6.40;99.90;;;;;;5082609;28;20812;-70
2023/03/12 09:20:57;;;;;;;3.00;2.70;;;6.30;99.90;;;;;;5082255;28;20523;-70
2023/03/12 09:23:25;;;;;;;10.33;3.23;;;6.20;99.90;;;;;;5084872;28;20441;-70
2023/03/12 09:25:52;;;;;;;3.07;1.97;;;6.20;99.90;;;;;;5081312;28;20457;-71
2023/03/12 09:28:20;;;;;;;12.53;2.67;;;6.20;99.90;;;;;;5082247;28;20425;-70
2023/03/12 09:30:48;;;;;;;3.40;2.10;;;6.10;99.90;;;;;;5086353;28;20464;-70
2023/03/12 09:33:15;;;;;;;6.60;3.50;;;6.40;99.90;;;;;;5083669;28;20432;-70
2023/03/12 09:35:43;;;;;;;4.40;2.87;;;6.50;99.90;;;;;;5085386;28;20541;-70
2023/03/12 09:38:13;;;;;;;1.93;1.60;;;6.50;99.90;;;;;;5081400;28;20552;-71
2023/03/12 09:40:46;;;;;;;2.80;2.20;;;6.50;99.90;;;;;;5082319;28;20816;-71
2023/03/12 09:43:22;;;;;;;2.17;1.93;;;6.60;99.90;;;;;;5087965;28;20874;-70
2023/03/12 09:45:50;;;;;;;3.10;2.17;;;6.70;99.90;;;;;;5082189;28;20503;-71
2023/03/12 09:48:19;;;;;;;2.30;2.10;;;6.70;99.90;;;;;;5099219;28;20437;-71
2023/03/12 09:50:51;;;;;;;2.43;2.23;;;6.60;99.90;;;;;;5089477;28;20462;-70
2023/03/12 09:53:27;;;;;;;2.70;1.10;;;6.60;99.90;;;;;;5094141;28;20488;-70
2023/03/12 09:55:57;;;;;;;3.77;1.67;;;6.50;99.90;;;;;;5085325;28;20470;-70
2023/03/12 09:58:27;;;;;;;2.40;2.20;;;6.30;99.90;;;;;;5074035;28;20458;-70
2023/03/12 10:01:00;;;;;;;3.13;2.00;;;6.20;99.90;;;;;;5088192;28;20456;-70
2023/03/12 10:03:40;;;;;;;2.10;1.90;;;6.20;99.90;;;;;;5083509;28;20414;-70
2023/03/12 10:06:14;;;;;;;2.50;2.30;;;6.30;99.90;;;;;;5084343;28;20965;-70
2023/03/12 10:08:55;;;;;;;1.70;1.40;;;6.40;99.90;;;;;;5074795;28;20450;-71
2023/03/12 10:11:32;;;;;;;1.50;1.30;;;6.40;99.90;;;;;;5095452;28;20511;-70
2023/03/12 10:14:08;;;;;;;4.13;1.60;;;6.40;99.90;;;;;;5086983;28;20428;-71
2023/03/12 10:16:49;;;;;;;3.80;2.60;;;6.40;99.90;;;;;;5075927;28;20827;-71
2023/03/12 10:19:34;;;;;;;1.30;0.97;;;6.60;99.90;;;;;;5093351;28;20405;-70
2023/03/12 10:22:13;;;;;;;1.90;1.60;;;6.50;99.90;;;;;;5087552;28;20412;-71
2023/03/12 10:24:51;;;;;;;2.77;1.70;;;6.50;99.90;;;;;;5080658;28;20457;-71
2023/03/12 10:27:29;;;;;;;3.00;1.67;;;6.60;99.90;;;;;;5080490;28;20561;-71
2023/03/12 10:29:57;;;;;;;1.70;1.37;;;6.60;99.90;;;;;;5080731;28;20568;-71
2023/03/12 10:32:30;;;;;;;2.47;2.27;;;6.60;99.90;;;;;;5075840;28;20537;-70
2023/03/12 10:34:59;;;;;;;1.83;1.17;;;6.50;99.90;;;;;;5081237;28;20478;-71
2023/03/12 10:37:31;;;;;;;3.20;1.97;;;6.60;99.90;;;;;;5084698;28;20453;-71
2023/03/12 10:39:59;;;;;;;2.33;1.93;;;6.60;99.90;;;;;;5074306;28;20489;-70
2023/03/12 10:42:28;;;;;;;1.90;1.70;;;6.60;99.90;;;;;;5080144;28;20429;-71
2023/03/12 10:44:59;;;;;;;7.70;1.70;;;6.50;99.90;;;;;;5098735;28;20420;-70
2023/03/12 10:47:34;;;;;;;1.33;1.23;;;6.60;99.90;;;;;;5099382;28;20864;-70
2023/03/12 10:50:14;;;;;;;5.97;2.33;;;6.70;99.90;;;;;;5084529;28;20865;-70
2023/03/12 10:52:43;;;;;;;4.13;3.30;;;6.70;99.90;;;;;;5077921;28;20413;-70
2023/03/12 10:55:20;;;;;;;1.87;1.67;;;6.90;99.90;;;;;;5075038;28;20541;-70
2023/03/12 10:57:48;;;;;;;5.00;1.70;;;6.80;99.90;;;;;;5083574;28;20833;-70
2023/03/12 11:00:20;;;;;;;1.87;1.73;;;6.90;99.90;;;;;;5083271;28;20491;-70
2023/03/12 11:02:57;;;;;;;1.80;1.50;;;6.90;99.90;;;;;;5090384;28;20852;-70
2023/03/12 11:05:28;;;;;;;1.63;1.53;;;7.00;99.90;;;;;;5085527;28;20470;-70
2023/03/12 11:07:58;;;;;;;1.40;1.20;;;7.00;99.90;;;;;;5084653;28;20461;-70
2023/03/12 11:10:37;;;;;;;3.23;2.40;;;7.00;99.90;;;;;;5084187;28;20441;-70
2023/03/12 11:13:07;;;;;;;2.97;2.23;;;7.00;99.90;;;;;;5093884;28;20453;-70
2023/03/12 11:15:41;;;;;;;4.60;1.47;;;7.10;99.90;;;;;;5083148;28;20872;-70
2023/03/12 11:18:27;;;;;;;3.27;3.03;;;7.10;99.90;;;;;;5083876;28;20516;-70
2023/03/12 11:20:56;;;;;;;2.30;1.73;;;7.20;99.90;;;;;;5084512;28;20502;-70
2023/03/12 11:23:27;;;;;;;2.50;2.30;;;7.20;99.90;;;;;;5087513;28;20424;-70
2023/03/12 11:25:57;;;;;;;1.70;1.40;;;7.20;99.90;;;;;;5087317;28;20485;-70
2023/03/12 11:28:28;;;;;;;2.83;1.90;;;7.20;99.90;;;;;;5084556;28;20454;-70
2023/03/12 11:30:59;;;;;;;1.40;1.30;;;7.30;99.90;;;;;;5090200;28;20441;-70
2023/03/12 11:33:26;;;;;;;2.27;2.00;;;7.50;99.90;;;;;;5088043;28;20979;-70
2023/03/12 11:36:08;;;;;;;3.67;2.63;;;7.60;99.90;;;;;;5099585;28;20440;-71
2023/03/12 11:38:40;;;;;;;2.40;1.90;;;7.60;99.90;;;;;;5110150;28;20413;-71
2023/03/12 11:41:27;;;;;;;2.93;1.93;;;7.60;99.90;;;;;;5084779;28;20430;-70
2023/03/12 11:44:16;;;;;;;4.43;3.60;;;7.80;99.90;;;;;;5084664;28;20446;-70
2023/03/12 11:46:54;;;;;;;4.10;2.93;;;7.90;99.90;;;;;;5088555;28;20983;-70
2023/03/12 11:49:39;;;;;;;4.53;2.57;;;7.80;99.90;;;;;;5086184;28;20461;-70
2023/03/12 11:52:16;;;;;;;4.70;2.70;;;7.90;99.90;;;;;;5087899;28;20457;-70
2023/03/12 11:54:57;;;;;;;5.30;3.93;;;8.00;99.90;;;;;;5081129;28;20436;-70
2023/03/12 11:57:35;;;;;;;5.27;2.50;;;8.10;99.90;;;;;;5079781;28;20453;-70
2023/03/12 12:00:12;;;;;;;5.33;3.33;;;8.10;99.90;;;;;;5079779;28;20986;-70
2023/03/12 12:03:05;;;;;;;6.33;2.37;;;8.30;99.90;;;;;;5076923;28;20952;-71
2023/03/12 12:05:43;;;;;;;7.00;4.20;;;8.40;99.90;;;;;;5086806;28;20435;-70
2023/03/12 12:08:26;;;;;;;6.00;2.93;;;8.40;99.90;;;;;;5086257;28;20503;-70
2023/03/12 12:11:02;;;;;;;5.93;4.30;;;8.40;99.90;;;;;;5085043;28;20873;-69
2023/03/12 12:13:38;;;;;;;4.73;2.83;;;8.40;99.90;;;;;;5090255;28;20467;-70
2023/03/12 12:16:22;;;;;;;15.90;2.87;;;8.50;99.90;;;;;;5079409;28;21228;-70
2023/03/12 12:19:22;;;;;;;6.90;4.90;;;8.60;99.90;;;;;;5092941;28;20425;-72
2023/03/12 12:22:13;;;;;;;5.73;4.10;;;8.50;99.90;;;;;;5097183;28;20429;-69
2023/03/12 12:25:00;;;;;;;6.37;3.77;;;8.70;99.90;;;;;;5092419;28;20425;-71
2023/03/12 12:27:32;;;;;;;4.70;4.13;;;8.70;99.90;;;;;;5082767;28;20452;-70
2023/03/12 12:30:17;;;;;;;1.70;1.57;;;8.70;99.90;;;;;;5087625;28;20473;-70
2023/03/12 12:33:02;;;;;;;4.70;2.70;;;8.80;99.90;;;;;;5090206;28;20812;-70
2023/03/12 12:35:35;;;;;;;7.83;4.03;;;8.90;99.90;;;;;;5075138;28;20446;-69
2023/03/12 12:38:07;;;;;;;5.90;3.00;;;9.00;99.90;;;;;;5080619;28;20534;-71
2023/03/12 12:40:38;;;;;;;8.33;7.27;;;8.90;99.90;;;;;;5085802;28;20486;-71
2023/03/12 12:43:21;;;;;;;10.43;6.57;;;9.10;99.90;;;;;;5085534;28;20924;-71
2023/03/12 12:45:52;;;;;;;9.63;6.17;;;9.10;99.90;;;;;;5089948;28;20542;-71
2023/03/12 12:48:24;;;;;;;7.83;4.70;;;9.20;99.90;;;;;;5089962;28;20954;-69
2023/03/12 12:50:53;;;;;;;11.37;5.13;;;9.30;99.90;;;;;;5081670;28;20494;-70
2023/03/12 12:53:25;;;;;;;11.80;6.23;;;9.30;99.90;;;;;;5090056;28;20814;-70
2023/03/12 12:56:02;;;;;;;9.40;5.90;;;9.60;99.90;;;;;;5081294;28;20462;-71
2023/03/12 12:58:56;;;;;;;10.57;6.23;;;9.60;99.90;;;;;;5094394;28;20483;-71
2023/03/12 13:01:24;;;;;;;8.50;4.97;;;9.80;99.90;;;;;;5081867;28;20546;-71
2023/03/12 13:03:51;;;;;;;8.73;3.80;;;9.90;99.90;;;;;;5083394;28;20523;-71
2023/03/12 13:06:18;;;;;;;10.97;6.10;;;9.90;99.90;;;;;;5084642;28;20540;-71
2023/03/12 13:09:15;;;;;;;8.30;4.90;;;10.00;99.90;;;;;;5089608;28;20451;-70
2023/03/12 13:11:45;;;;;;;11.67;7.30;;;10.10;99.90;;;;;;5096939;28;20462;-71